Time;durP1;ratioP1;P1;durP2;ratioP2;P2;SDS_P1;SDS_P2;PMS_P1;PMS_P2;Temp;Humidity;BMP_temperature;BMP_pressure;BME280_temperature;BME280_humidity;BME280_pressure;Samples;Min_cycle;Max_cycle;Signal;HPM_P1;HPM_P2
2022/03/07 00:02:09;;;;;;;;;55.00;42.00;;;;;1.32;58.26;99749.00;6283810;20;2875461;-48
2022/03/07 00:04:39;;;;;;;;;57.67;42.67;;;;;0.40;60.92;99746.53;6284426;20;2886806;-46
2022/03/07 00:07:08;;;;;;;;;55.33;42.00;;;;;0.68;61.22;99742.47;6315830;20;2877334;-47
2022/03/07 00:09:37;;;;;;;;;50.50;43.00;;;;;0.58;62.53;99742.66;6310720;20;2870125;-45
2022/03/07 00:12:07;;;;;;;;;61.00;45.33;;;;;0.61;61.03;99755.81;6278961;20;2873179;-46
2022/03/07 00:14:36;;;;;;;;;52.50;44.50;;;;;0.18;62.30;99748.69;6314049;20;2862770;-45
2022/03/07 00:17:04;;;;;;;;;50.50;42.00;;;;;-0.07;63.78;99752.69;6280047;20;2508605;-47
2022/03/07 00:19:33;;;;;;;;;64.00;47.00;;;;;0.53;61.27;99752.44;6282335;20;2883613;-47
2022/03/07 00:22:02;;;;;;;;;49.00;44.00;;;;;0.56;60.87;99755.03;6279859;20;2503458;-45
2022/03/07 00:24:31;;;;;;;;;67.00;50.00;;;;;-0.01;63.01;99755.19;6281644;20;2866967;-45
2022/03/07 00:26:59;;;;;;;;;70.00;49.00;;;;;0.45;61.52;99759.66;6278359;20;2503440;-44
2022/03/07 00:29:28;;;;;;;;;64.00;49.00;;;;;0.24;62.83;99755.66;6281639;20;2864818;-45
2022/03/07 00:31:57;;;;;;;;;69.75;54.25;;;;;0.36;62.80;99752.75;6283449;20;3624171;-45
2022/03/07 00:34:26;;;;;;;;;75.00;57.00;;;;;0.08;63.38;99751.53;6315312;20;2893085;-46
2022/03/07 00:36:55;;;;;;;;;68.00;53.50;;;;;-0.08;63.86;99745.63;6280425;20;2866009;-47
2022/03/07 00:39:25;;;;;;;;;79.33;56.33;;;;;0.14;63.48;99740.88;6280984;20;2904587;-45
2022/03/07 00:41:54;;;;;;;;;73.00;54.50;;;;;-0.01;63.52;99750.78;6311031;20;2871109;-47
2022/03/07 00:44:21;;;;;;;;;60.00;46.00;;;;;0.00;63.75;99746.41;6278699;20;2495213;-45
2022/03/07 00:46:51;;;;;;;;;60.33;44.00;;;;;-0.11;63.71;99748.34;6282830;20;2874241;-45
2022/03/07 00:49:20;;;;;;;;;65.00;48.50;;;;;-0.09;63.57;99751.81;6312984;20;2864910;-47
2022/03/07 00:51:50;;;;;;;;;71.33;46.67;;;;;-0.34;64.21;99752.25;6280785;20;2889813;-47
2022/03/07 00:54:19;;;;;;;;;72.50;55.00;;;;;-0.34;64.42;99752.25;6315400;20;2873166;-46
2022/03/07 00:56:48;;;;;;;;;67.00;47.50;;;;;-0.27;63.98;99753.00;6282205;20;2873165;-45
2022/03/07 00:59:16;;;;;;;;;62.00;46.00;;;;;-0.32;63.66;99760.97;6282974;20;2874209;-45
2022/03/07 01:01:44;;;;;;;;;60.00;47.00;;;;;-0.22;63.57;99749.38;6279679;20;2506519;-46
2022/03/07 01:04:15;;;;;;;;;66.00;49.00;;;;;-0.54;64.76;99749.91;6283559;20;2861807;-45
2022/03/07 01:06:43;;;;;;;;;25.00;6.00;;;;;-0.29;63.65;99750.41;6281617;20;2814849;-45
2022/03/07 01:09:16;;;;;;;;;55.00;37.50;;;;;-0.59;64.91;99745.59;6279577;20;2500476;-47
2022/03/07 01:11:45;;;;;;;;;56.00;42.00;;;;;-0.43;64.34;99752.38;6283874;20;2890996;-46
2022/03/07 01:14:13;;;;;;;;;50.50;43.00;;;;;-0.27;63.97;99748.59;6311875;20;2506565;-45
2022/03/07 01:16:42;;;;;;;;;47.00;41.50;;;;;-0.38;63.69;99752.31;6280045;20;2869020;-45
2022/03/07 01:19:11;;;;;;;;;63.50;46.00;;;;;-0.55;64.68;99742.03;6280355;20;2854618;-47
2022/03/07 01:21:40;;;;;;;;;43.00;39.50;;;;;-0.62;64.68;99740.38;6277356;20;2500245;-48
2022/03/07 01:24:09;;;;;;;;;52.00;38.50;;;;;-0.32;64.16;99739.00;6279505;20;2870171;-50
2022/03/07 01:26:39;;;;;;;;;55.50;43.50;;;;;-0.57;64.33;99738.56;6282005;20;2881512;-48
2022/03/07 01:29:08;;;;;;;;;49.00;40.67;;;;;-0.53;64.88;99737.59;6280350;20;2877356;-50
2022/03/07 01:31:36;;;;;;;;;52.00;42.00;;;;;-0.51;65.03;99741.09;6310514;20;2502374;-45
2022/03/07 01:34:05;;;;;;;;;49.00;41.50;;;;;-0.31;64.19;99743.41;6280051;20;2871076;-47
2022/03/07 01:36:35;;;;;;;;;56.00;38.00;;;;;-0.49;64.38;99736.66;6280909;20;2892129;-48
2022/03/07 01:39:04;;;;;;;;;49.00;40.00;;;;;-0.19;63.70;99737.91;6310880;20;2873265;-46
2022/03/07 01:41:33;;;;;;;;;45.50;36.50;;;;;-0.19;63.76;99739.69;6277100;20;2868007;-48
2022/03/07 01:44:02;;;;;;;;;54.67;42.33;;;;;-0.22;63.57;99740.59;6282794;20;2884677;-48
2022/03/07 01:46:32;;;;;;;;;55.00;44.00;;;;;0.00;63.03;99738.50;6311548;20;2879484;-48
2022/03/07 01:49:02;;;;;;;;;57.33;40.33;;;;;-0.02;63.47;99733.22;6281516;20;2884746;-47
2022/03/07 01:51:31;;;;;;;;;49.00;38.50;;;;;-0.03;63.16;99733.22;6313166;20;2873354;-47
2022/03/07 01:53:59;;;;;;;;;41.50;34.50;;;;;0.28;62.15;99725.63;6278993;20;2500450;-46
2022/03/07 01:56:29;;;;;;;;;45.00;39.00;;;;;0.01;62.55;99732.31;6278993;20;3607549;-45
2022/03/07 01:58:58;;;;;;;;;70.50;54.50;;;;;-0.32;64.63;99729.31;6279901;20;2871064;-45
2022/03/07 02:01:28;;;;;;;;;96.67;72.00;;;;;-0.79;64.67;99730.97;6279863;20;3664812;-48
2022/03/07 02:03:58;;;;;;;;;89.33;65.00;;;;;-0.70;65.62;99730.81;6313993;20;3658562;-46
2022/03/07 02:06:28;;;;;;;;;76.00;53.50;;;;;-0.28;66.14;99728.41;6310735;20;2881504;-43
2022/03/07 02:08:58;;;;;;;;;48.67;39.67;;;;;-0.10;64.40;99721.06;6281149;20;2877417;-44
2022/03/07 02:11:26;;;;;;;;;44.00;38.00;;;;;-0.24;64.60;99724.81;6310439;20;2502324;-45
2022/03/07 02:13:55;;;;;;;;;53.00;41.50;;;;;-0.12;64.48;99726.38;6282117;20;2871098;-46
2022/03/07 02:16:24;;;;;;;;;52.50;37.50;;;;;-0.07;64.40;99724.50;6280206;20;2878439;-45
2022/03/07 02:18:52;;;;;;;;;45.00;37.00;;;;;0.17;63.29;99712.63;6282792;20;2500405;-44
2022/03/07 02:21:19;;;;;;;;;50.00;40.00;;;;;0.28;62.68;99714.19;6280299;20;2500329;-46
2022/03/07 02:23:47;;;;;;;;;38.50;34.50;;;;;0.33;62.92;99717.63;6284782;20;2500273;-45
2022/03/07 02:26:18;;;;;;;;;58.00;44.00;;;;;0.18;62.94;99714.34;6285984;20;2877325;-45
2022/03/07 02:28:47;;;;;;;;;54.50;41.50;;;;;0.27;62.66;99718.63;6286418;20;2864835;-44
2022/03/07 02:31:20;;;;;;;;;45.33;40.67;;;;;0.45;62.96;99720.03;6282337;20;3588847;-44
2022/03/07 02:33:49;;;;;;;;;47.00;34.67;;;;;0.22;62.49;99716.06;6285674;20;2875251;-46
2022/03/07 02:36:17;;;;;;;;;45.00;38.50;;;;;0.21;62.79;99719.59;6312500;20;2500278;-44
2022/03/07 02:38:45;;;;;;;;;50.00;41.00;;;;;0.42;62.77;99725.34;6281182;20;2500245;-45
2022/03/07 02:41:14;;;;;;;;;54.50;41.00;;;;;0.15;62.73;99722.34;6279652;20;2500243;-44
2022/03/07 02:43:43;;;;;;;;;47.00;41.00;;;;;0.59;61.30;99731.19;6278914;20;2500266;-45
2022/03/07 02:46:12;;;;;;;;;52.00;41.67;;;;;0.40;61.77;99735.09;6285986;20;2881678;-45
2022/03/07 02:48:43;;;;;;;;;37.00;34.00;;;;;0.43;62.38;99729.75;6314367;20;2500387;-47
2022/03/07 02:51:11;;;;;;;;;43.00;35.50;;;;;0.09;63.38;99730.38;6280865;20;2502372;-45
2022/03/07 02:53:40;;;;;;;;;42.00;38.00;;;;;0.17;62.47;99741.66;6285256;20;3476249;-44
2022/03/07 02:56:09;;;;;;;;;39.67;39.00;;;;;0.44;62.11;99739.41;6311252;20;3585660;-44
2022/03/07 02:58:38;;;;;;;;;47.50;38.50;;;;;0.42;61.95;99749.13;6285299;20;2859618;-44
2022/03/07 03:01:07;;;;;;;;;51.33;41.67;;;;;0.37;62.78;99745.69;6286599;20;3594022;-45
2022/03/07 03:03:36;;;;;;;;;58.50;45.50;;;;;0.02;63.88;99746.34;6282827;20;2508599;-46
2022/03/07 03:06:04;;;;;;;;;46.00;40.50;;;;;0.22;64.59;99752.16;6280691;20;2502357;-45
2022/03/07 03:08:34;;;;;;;;;51.00;42.33;;;;;0.20;63.47;99748.66;6280864;20;2879716;-44
2022/03/07 03:11:04;;;;;;;;;53.00;41.33;;;;;0.17;63.97;99748.72;6312057;20;2883724;-47
2022/03/07 03:13:33;;;;;;;;;47.50;39.00;;;;;0.47;62.75;99747.25;6314768;20;2871264;-48
2022/03/07 03:16:01;;;;;;;;;59.00;45.00;;;;;0.39;63.38;99743.91;6280050;20;2515923;-46
2022/03/07 03:18:30;;;;;;;;;66.00;50.00;;;;;0.21;64.04;99745.13;6283963;20;2753472;-45
2022/03/07 03:20:58;;;;;;;;;58.50;46.00;;;;;0.17;64.05;99748.72;6310712;20;2508568;-48
2022/03/07 03:23:27;;;;;;;;;68.00;52.00;;;;;0.68;61.89;99745.97;6284816;20;2870025;-50
2022/03/07 03:25:56;;;;;;;;;65.00;45.00;;;;;0.30;62.98;99754.66;6285352;20;2864952;-47
2022/03/07 03:28:26;;;;;;;;;61.33;45.00;;;;;0.31;63.50;99757.25;6284231;20;2865928;-46
2022/03/07 03:30:57;;;;;;;;;62.00;49.00;;;;;0.22;62.87;99758.31;6314709;20;2853375;-44
2022/03/07 03:33:25;;;;;;;;;51.50;39.00;;;;;0.33;63.78;99762.50;6282124;20;2500394;-46
2022/03/07 03:35:54;;;;;;;;;59.50;46.00;;;;;0.20;64.39;99768.00;6281972;20;2866990;-44
2022/03/07 03:38:22;;;;;;;;;54.00;43.50;;;;;0.37;63.10;99766.81;6282714;20;2875424;-47
2022/03/07 03:40:51;;;;;;;;;50.00;41.50;;;;;0.44;62.72;99779.88;6284996;20;2870207;-47
2022/03/07 03:43:21;;;;;;;;;56.00;41.67;;;;;0.31;63.27;99769.59;6280921;20;2884735;-45
2022/03/07 03:45:49;;;;;;;;;53.50;42.50;;;;;0.16;63.50;99768.97;6311846;20;2500416;-47
2022/03/07 03:48:17;;;;;;;;;40.50;32.50;;;;;-0.02;64.62;99769.31;6281974;20;2500257;-44
2022/03/07 03:50:46;;;;;;;;;48.00;42.00;;;;;0.18;63.92;99766.28;6285291;20;2874559;-47
2022/03/07 03:53:15;;;;;;;;;42.50;40.00;;;;;0.22;63.34;99760.94;6283715;20;2850258;-48
2022/03/07 03:55:42;;;;;;;;;58.50;39.00;;;;;-0.04;64.15;99766.69;6282073;20;2500376;-47
2022/03/07 03:58:10;;;;;;;;;49.00;40.00;;;;;0.10;63.93;99763.78;6280787;20;2500259;-46
2022/03/07 04:00:39;;;;;;;;;44.50;39.00;;;;;0.16;62.96;99768.97;6282428;20;2862903;-46
2022/03/07 04:03:08;;;;;;;;;45.67;35.67;;;;;0.56;61.80;99768.22;6280293;20;3611024;-45
2022/03/07 04:05:37;;;;;;;;;57.00;42.00;;;;;0.21;63.64;99764.50;6283617;20;2860686;-46
2022/03/07 04:08:07;;;;;;;;;54.00;41.67;;;;;0.00;64.66;99762.25;6283889;20;2880642;-46
2022/03/07 04:10:35;;;;;;;;;46.00;41.50;;;;;0.25;63.78;99767.06;6313061;20;2863827;-45
2022/03/07 04:13:03;;;;;;;;;39.00;35.00;;;;;0.31;62.93;99767.81;6281073;20;2500400;-45
2022/03/07 04:15:31;;;;;;;;;44.00;37.00;;;;;0.18;63.32;99764.53;6278505;20;2500330;-46
2022/03/07 04:18:00;;;;;;;;;40.50;29.00;;;;;0.13;63.51;99761.13;6282817;20;2871068;-47
2022/03/07 04:20:28;;;;;;;;;44.00;33.00;;;;;0.06;63.06;99761.25;6279879;20;2853383;-45
2022/03/07 04:22:55;;;;;;;;;41.50;34.50;;;;;0.14;63.48;99754.94;6280738;20;2500261;-47
2022/03/07 04:25:23;;;;;;;;;51.00;31.00;;;;;0.38;62.21;99758.03;6277978;20;2498254;-45
2022/03/07 04:27:51;;;;;;;;;45.00;36.00;;;;;0.08;62.90;99760.34;6281298;20;2500926;-44
2022/03/07 04:30:19;;;;;;;;;42.50;26.00;;;;;0.33;61.81;99768.66;6281269;20;2877326;-46
2022/03/07 04:32:47;;;;;;;;;39.00;30.50;;;;;0.15;62.92;99759.31;6280602;20;2871173;-46
2022/03/07 04:35:16;;;;;;;;;39.00;28.50;;;;;0.26;62.14;99764.38;6282214;20;2863789;-47
2022/03/07 04:37:45;;;;;;;;;35.00;25.00;;;;;0.13;62.95;99763.75;6281668;20;2859167;-46
2022/03/07 04:40:17;;;;;;;;;32.00;28.00;;;;;-0.04;62.67;99757.91;6274377;20;2500425;-44
2022/03/07 04:42:46;;;;;;;;;58.50;37.00;;;;;0.43;61.02;99762.31;6281032;20;2885814;-46
2022/03/07 04:45:15;;;;;;;;;45.50;33.00;;;;;0.59;61.76;99765.53;6274927;20;2500384;-46
2022/03/07 04:47:43;;;;;;;;;41.00;34.50;;;;;0.68;60.97;99766.25;6281050;20;2500395;-45
2022/03/07 04:50:12;;;;;;;;;38.50;31.00;;;;;0.31;61.88;99761.66;6277791;20;2500277;-45
2022/03/07 04:52:43;;;;;;;;;38.67;35.67;;;;;0.37;61.65;99757.16;6281359;20;3599169;-46
2022/03/07 04:55:12;;;;;;;;;44.50;37.50;;;;;0.33;61.83;99765.16;6281824;20;2500379;-44
2022/03/07 04:57:43;;;;;;;;;43.00;34.50;;;;;0.42;61.33;99762.31;6281983;20;2863808;-44
2022/03/07 05:00:14;;;;;;;;;41.00;38.00;;;;;-0.03;62.24;99757.00;6281430;20;2500265;-46
2022/03/07 05:02:42;;;;;;;;;45.50;35.00;;;;;0.09;62.35;99759.44;6283476;20;2500375;-47
2022/03/07 05:05:11;;;;;;;;;44.00;33.00;;;;;0.23;61.78;99764.44;6282070;20;2500374;-55
2022/03/07 05:07:40;;;;;;;;;41.33;32.67;;;;;0.27;62.05;99760.00;6283248;20;3602542;-53
2022/03/07 05:10:09;;;;;;;;;39.00;29.00;;;;;0.32;61.69;99763.44;6277398;20;2741946;-55
2022/03/07 05:12:37;;;;;;;;;34.00;29.50;;;;;0.25;61.46;99761.78;6311851;20;2500266;-54
2022/03/07 05:15:06;;;;;;;;;30.50;30.50;;;;;0.15;61.14;99761.94;6280498;20;2846186;-53
2022/03/07 05:17:48;;;;;;;;;31.50;29.00;;;;;0.43;60.30;99769.38;6285513;20;2500488;-53
2022/03/07 05:20:17;;;;;;;;;37.00;30.00;;;;;0.27;61.17;99762.63;6278646;20;2500293;-54
2022/03/07 05:22:45;;;;;;;;;44.50;41.00;;;;;0.38;60.75;99768.59;6283837;20;2500257;-52
2022/03/07 05:25:16;;;;;;;;;39.50;36.00;;;;;0.33;61.22;99765.16;6285688;20;2851380;-53
2022/03/07 05:27:46;;;;;;;;;36.50;29.50;;;;;0.42;60.89;99764.97;6284623;20;2858653;-52
2022/03/07 05:30:20;;;;;;;;;37.50;29.00;;;;;0.39;61.04;99770.31;6284117;20;2864935;-45
2022/03/07 05:32:53;;;;;;;;;38.00;34.50;;;;;0.55;60.12;99761.19;6282043;20;2500236;-43
2022/03/07 05:35:23;;;;;;;;;33.00;26.00;;;;;0.53;60.13;99763.00;6284325;20;2861076;-45
2022/03/07 05:37:52;;;;;;;;;36.00;31.50;;;;;0.06;61.14;99769.19;6281242;20;2500264;-46
2022/03/07 05:40:20;;;;;;;;;36.00;30.00;;;;;0.35;60.94;99768.66;6284134;20;2859739;-47
2022/03/07 05:42:48;;;;;;;;;37.50;28.50;;;;;0.39;60.52;99765.03;6282243;20;2500319;-43
2022/03/07 05:45:15;;;;;;;;;43.50;34.50;;;;;0.33;60.76;99768.66;6283571;20;2500364;-48
2022/03/07 05:47:44;;;;;;;;;28.33;23.33;;;;;0.22;60.79;99763.59;6284524;20;3564870;-46
2022/03/07 05:50:13;;;;;;;;;41.50;30.50;;;;;0.37;60.89;99769.47;6313167;20;2869132;-46
2022/03/07 05:52:42;;;;;;;;;44.00;29.00;;;;;0.29;60.14;99763.47;6277162;20;2500386;-45
2022/03/07 05:55:11;;;;;;;;;48.00;34.50;;;;;0.50;60.20;99763.06;6280910;20;2500281;-46
2022/03/07 05:57:39;;;;;;;;;38.00;30.00;;;;;0.41;60.20;99758.81;6281853;20;2500370;-46
2022/03/07 06:00:12;;;;;;;;;44.50;32.00;;;;;0.57;59.30;99769.97;6282526;20;2865865;-47
2022/03/07 06:02:40;;;;;;;;;35.00;29.00;;;;;0.71;58.80;99776.75;6284117;20;2500248;-48
2022/03/07 06:05:10;;;;;;;;;32.00;28.50;;;;;0.63;60.01;99775.16;6284369;20;2500388;-46
2022/03/07 06:07:38;;;;;;;;;15.00;10.00;;;;;0.85;58.70;99770.28;6285625;20;2789904;-46
2022/03/07 06:10:09;;;;;;;;;43.00;31.67;;;;;0.76;58.67;99775.75;6283068;20;2874197;-46
2022/03/07 06:12:36;;;;;;;;;44.00;36.50;;;;;0.49;59.19;99777.16;6314154;20;2500369;-44
2022/03/07 06:15:06;;;;;;;;;41.00;31.00;;;;;0.79;59.05;99780.09;6281296;20;2500407;-44
2022/03/07 06:17:35;;;;;;;;;40.67;34.00;;;;;0.85;59.22;99785.28;6285809;20;3590900;-46
2022/03/07 06:20:05;;;;;;;;;44.00;37.00;;;;;0.97;57.82;99779.72;6277101;20;2508627;-44
2022/03/07 06:22:34;;;;;;;;;41.50;36.00;;;;;1.21;57.89;99788.03;6285012;20;2868019;-44
2022/03/07 06:25:03;;;;;;;;;42.00;36.00;;;;;1.10;58.47;99781.19;6285424;20;2867980;-44
2022/03/07 06:27:32;;;;;;;;;45.50;32.50;;;;;1.26;57.59;99788.78;6284201;20;2875303;-44
2022/03/07 06:30:01;;;;;;;;;49.50;41.00;;;;;1.37;57.33;99783.25;6282804;20;2874608;-43
2022/03/07 06:32:29;;;;;;;;;47.50;38.00;;;;;1.47;56.78;99787.44;6280867;20;2500381;-46
2022/03/07 06:34:59;;;;;;;;;48.00;38.00;;;;;1.34;57.45;99781.56;6281849;20;2872183;-46
2022/03/07 06:37:27;;;;;;;;;45.50;35.00;;;;;1.61;57.08;99792.44;6281309;20;2872106;-48
2022/03/07 06:39:57;;;;;;;;;45.00;36.00;;;;;1.44;57.00;99801.63;6283290;20;2860657;-46
2022/03/07 06:42:26;;;;;;;;;46.00;36.00;;;;;1.73;56.13;99792.13;6281317;20;2871134;-47
2022/03/07 06:44:56;;;;;;;;;53.67;35.00;;;;;1.44;56.45;99796.31;6283344;20;2883661;-45
2022/03/07 06:47:24;;;;;;;;;40.00;37.00;;;;;1.31;57.16;99790.44;6316617;20;2857568;-47
2022/03/07 06:49:56;;;;;;;;;40.00;34.00;;;;;1.21;57.03;99790.66;6282077;20;2835761;-46
2022/03/07 06:52:25;;;;;;;;;42.00;38.00;;;;;1.52;59.64;99798.78;6277477;20;2500283;-45
2022/03/07 06:54:54;;;;;;;;;45.00;30.00;;;;;1.68;56.46;99799.31;6281492;20;2881656;-45
2022/03/07 06:57:22;;;;;;;;;39.00;27.00;;;;;1.59;55.81;99803.06;6279291;20;2500364;-46
2022/03/07 06:59:50;;;;;;;;;37.50;28.50;;;;;1.31;55.92;99805.44;6280437;20;2500265;-44
2022/03/07 07:02:18;;;;;;;;;30.50;30.00;;;;;1.52;55.55;99804.94;6277695;20;2500262;-46
2022/03/07 07:04:47;;;;;;;;;34.00;32.00;;;;;1.88;55.32;99807.66;6283736;20;2504443;-46
2022/03/07 07:07:16;;;;;;;;;51.00;32.00;;;;;1.22;56.30;99803.88;6289230;20;2877355;-46
2022/03/07 07:09:44;;;;;;;;;42.00;29.50;;;;;1.65;55.70;99800.25;6289299;20;2876331;-48
2022/03/07 07:12:12;;;;;;;;;34.50;29.00;;;;;2.02;54.85;99809.09;6288341;20;2848174;-46
2022/03/07 07:14:40;;;;;;;;;39.50;35.00;;;;;2.16;53.59;99810.50;6286167;20;2500368;-47
2022/03/07 07:17:09;;;;;;;;;39.33;31.67;;;;;1.91;54.31;99812.00;6288303;20;3600233;-45
2022/03/07 07:19:36;;;;;;;;;34.00;26.00;;;;;1.71;54.89;99804.53;6287303;20;2500487;-45
2022/03/07 07:22:05;;;;;;;;;33.33;23.33;;;;;1.78;54.20;99805.25;6288978;20;3592969;-46
2022/03/07 07:24:33;;;;;;;;;31.50;30.50;;;;;2.06;53.74;99802.81;6283565;20;2500382;-45
2022/03/07 07:27:03;;;;;;;;;39.50;30.00;;;;;2.55;52.84;99805.03;6286132;20;2869021;-46
2022/03/07 07:29:31;;;;;;;;;37.50;29.00;;;;;2.50;54.03;99811.38;6285537;20;2500249;-45
2022/03/07 07:32:02;;;;;;;;;53.33;42.00;;;;;2.23;55.16;99810.34;6288260;20;2879519;-45
2022/03/07 07:34:31;;;;;;;;;45.50;38.50;;;;;2.62;54.93;99813.72;6321074;20;2861728;-43
2022/03/07 07:36:59;;;;;;;;;41.67;35.00;;;;;2.46;55.18;99815.03;6287530;20;3571174;-44
2022/03/07 07:39:38;;;;;;;;;55.00;44.33;;;;;2.78;55.21;99816.81;6287923;20;2872227;-43
2022/03/07 07:42:08;;;;;;;;;56.00;42.33;;;;;2.48;54.46;99823.81;6320440;20;2862765;-43
2022/03/07 07:44:37;;;;;;;;;42.33;39.00;;;;;2.50;54.95;99820.22;6317774;20;2870484;-43
2022/03/07 07:47:07;;;;;;;;;43.00;32.33;;;;;2.39;55.91;99824.91;6316682;20;2869061;-45
2022/03/07 07:49:37;;;;;;;;;41.33;39.33;;;;;2.44;55.15;99827.44;6318274;20;2865895;-43
2022/03/07 07:52:07;;;;;;;;;56.00;44.00;;;;;2.48;55.54;99829.13;6320042;20;2858727;-44
2022/03/07 07:54:35;;;;;;;;;62.00;45.50;;;;;2.01;56.46;99824.13;6315864;20;2488243;-45
2022/03/07 07:57:07;;;;;;;;;54.50;46.00;;;;;2.51;56.17;99837.00;6288583;20;2839841;-42
2022/03/07 07:59:36;;;;;;;;;63.00;44.67;;;;;2.50;56.03;99828.19;6282322;20;3635651;-43
2022/03/07 08:02:25;;;;;;;;;60.50;45.50;;;;;1.95;56.35;99830.44;6318758;20;2856535;-42
2022/03/07 08:04:54;;;;;;;;;62.50;47.00;;;;;1.96;56.65;99834.81;6288329;20;2851329;-43
2022/03/07 08:07:27;;;;;;;;;61.00;46.00;;;;;2.02;57.15;99833.78;6287034;20;2850247;-42
2022/03/07 08:09:55;;;;;;;;;65.50;45.50;;;;;2.57;55.88;99834.16;6282757;20;2496180;-43
2022/03/07 08:12:24;;;;;;;;;61.50;48.50;;;;;2.57;55.50;99835.03;6287442;20;2859658;-44
2022/03/07 08:14:53;;;;;;;;;62.50;45.00;;;;;2.51;54.74;99829.03;6289104;20;2862785;-44
2022/03/07 08:17:20;;;;;;;;;57.50;49.00;;;;;2.46;55.43;99837.09;6284584;20;2495156;-44
2022/03/07 08:19:49;;;;;;;;;51.00;44.00;;;;;2.23;56.12;99829.75;6284265;20;2861716;-45
2022/03/07 08:22:18;;;;;;;;;48.50;36.50;;;;;2.44;55.25;99830.09;6288393;20;2871136;-46
2022/03/07 08:24:47;;;;;;;;;51.33;44.33;;;;;2.44;54.93;99838.06;6284466;20;3607541;-45
2022/03/07 08:27:16;;;;;;;;;63.00;45.50;;;;;2.32;55.55;99828.66;6318346;20;2859693;-45
2022/03/07 08:29:45;;;;;;;;;66.50;48.50;;;;;2.57;55.23;99836.81;6285158;20;2863805;-45
2022/03/07 08:32:14;;;;;;;;;58.50;43.00;;;;;2.64;54.10;99841.06;6287213;20;2895055;-47
2022/03/07 08:34:42;;;;;;;;;61.50;45.50;;;;;2.41;54.83;99842.50;6286090;20;2843072;-47
2022/03/07 08:37:10;;;;;;;;;62.50;47.00;;;;;2.74;54.58;99842.56;6280633;20;2494065;-46
2022/03/07 08:39:38;;;;;;;;;64.00;48.00;;;;;2.73;54.47;99847.88;6283306;20;2496095;-47
2022/03/07 08:42:08;;;;;;;;;46.00;38.67;;;;;2.69;54.08;99848.91;6286908;20;3630485;-47
2022/03/07 08:44:36;;;;;;;;;55.50;43.50;;;;;2.64;54.23;99849.88;6315338;20;2498333;-49
2022/03/07 08:47:05;;;;;;;;;51.00;44.50;;;;;2.60;55.13;99852.63;6287565;20;2842949;-47
2022/03/07 08:49:34;;;;;;;;;61.00;46.00;;;;;2.40;54.68;99847.88;6285509;20;2863807;-54
2022/03/07 08:52:05;;;;;;;;;60.00;46.00;;;;;2.88;54.13;99843.94;6287551;20;2686807;-53
2022/03/07 08:54:35;;;;;;;;;51.00;42.50;;;;;2.62;54.25;99842.88;6318123;20;2854401;-54
2022/03/07 08:57:05;;;;;;;;;59.00;44.00;;;;;2.62;54.01;99843.72;6288534;20;2881479;-55
2022/03/07 08:59:34;;;;;;;;;59.00;45.00;;;;;2.78;54.32;99838.88;6316865;20;2854489;-51
2022/03/07 09:02:03;;;;;;;;;60.00;43.00;;;;;2.76;54.19;99840.69;6285876;20;2854416;-55
2022/03/07 09:04:32;;;;;;;;;55.00;43.50;;;;;3.11;54.48;99838.88;6282123;20;2497804;-54
2022/03/07 09:07:01;;;;;;;;;64.00;49.50;;;;;3.05;55.01;99842.56;6285907;20;2859613;-53
2022/03/07 09:09:30;;;;;;;;;62.50;48.00;;;;;3.26;53.80;99841.06;6283658;20;2865858;-54
2022/03/07 09:12:03;;;;;;;;;62.00;49.00;;;;;3.32;53.23;99844.44;6285853;20;2866897;-57
2022/03/07 09:14:32;;;;;;;;;66.00;49.50;;;;;3.34;53.76;99837.31;6284217;20;2879434;-55
2022/03/07 09:17:03;;;;;;;;;66.33;48.00;;;;;3.15;53.80;99840.50;6283347;20;2887812;-53
2022/03/07 09:19:32;;;;;;;;;65.00;47.00;;;;;3.18;53.25;99844.84;6317034;20;2867954;-57
2022/03/07 09:22:01;;;;;;;;;76.00;53.50;;;;;3.43;53.11;99837.06;6286386;20;2889820;-56
2022/03/07 09:24:31;;;;;;;;;68.00;51.00;;;;;3.69;52.87;99837.13;6283978;20;2895054;-55
2022/03/07 09:27:00;;;;;;;;;70.67;53.67;;;;;3.46;53.19;99839.63;6316597;20;3636728;-57
2022/03/07 09:29:30;;;;;;;;;69.00;52.67;;;;;3.27;54.59;99829.53;6317019;20;2877441;-55
2022/03/07 09:32:01;;;;;;;;;63.50;52.00;;;;;3.42;53.44;99830.88;6309646;20;2500257;-56
2022/03/07 09:34:30;;;;;;;;;69.50;55.00;;;;;3.50;53.42;99835.94;6284682;20;2869097;-55
2022/03/07 09:36:59;;;;;;;;;66.00;51.00;;;;;3.85;53.07;99834.00;6284959;20;2870194;-57
2022/03/07 09:39:28;;;;;;;;;70.50;54.00;;;;;3.67;53.53;99828.34;6283999;20;2857549;-55
2022/03/07 09:41:59;;;;;;;;;66.00;51.50;;;;;3.81;52.77;99829.69;6283268;20;2859694;-53
2022/03/07 09:44:29;;;;;;;;;66.67;53.33;;;;;3.91;52.63;99833.78;6283932;20;2875388;-53
2022/03/07 09:47:01;;;;;;;;;72.00;53.00;;;;;4.00;52.95;99835.28;6317126;20;2870028;-56
2022/03/07 09:49:31;;;;;;;;;66.00;49.50;;;;;3.70;52.25;99828.22;6283858;20;2871058;-56
2022/03/07 09:52:00;;;;;;;;;66.00;50.50;;;;;4.01;52.10;99823.75;6283614;20;2500245;-55
2022/03/07 09:54:30;;;;;;;;;63.50;50.00;;;;;3.16;52.91;99823.69;6282546;20;2865950;-56
2022/03/07 09:56:58;;;;;;;;;60.00;48.00;;;;;3.57;51.94;99818.91;6280520;20;2492003;-56
2022/03/07 09:59:26;;;;;;;;;60.00;45.50;;;;;3.56;51.84;99825.16;6278433;20;2496122;-56
2022/03/07 10:02:07;;;;;;;;;64.00;49.00;;;;;3.91;51.45;99833.78;6286622;20;2861744;-56
2022/03/07 10:04:46;;;;;;;;;56.00;39.00;;;;;3.71;51.48;99826.44;6284804;20;2891139;-57
2022/03/07 10:07:14;;;;;;;;;56.00;44.00;;;;;3.99;51.23;99831.75;6313149;20;2496205;-57
2022/03/07 10:09:44;;;;;;;;;55.00;42.00;;;;;4.11;49.84;99827.84;6284700;20;2880465;-55
2022/03/07 10:12:13;;;;;;;;;60.00;43.00;;;;;3.74;51.12;99821.94;6281860;20;2873152;-56
2022/03/07 10:14:45;;;;;;;;;52.00;43.00;;;;;4.27;49.45;99815.78;6281949;20;2475352;-56
2022/03/07 10:17:31;;;;;;;;;35.00;33.00;;;;;4.10;49.00;99824.28;6280054;20;2500263;-55
2022/03/07 10:20:06;;;;;;;;;41.00;31.50;;;;;4.08;48.64;99831.47;6282070;20;2859647;-56
2022/03/07 10:22:47;;;;;;;;;43.00;36.50;;;;;4.18;48.42;99818.72;6286074;20;2864870;-44
2022/03/07 10:25:25;;;;;;;;;35.00;33.50;;;;;3.75;48.41;99822.78;6282991;20;2845101;-47
2022/03/07 10:27:55;;;;;;;;;39.00;34.00;;;;;4.32;48.40;99818.28;6283853;20;2508562;-43
2022/03/07 10:30:31;;;;;;;;;36.50;32.00;;;;;4.16;47.86;99825.88;6280159;20;2853356;-44
2022/03/07 10:33:11;;;;;;;;;44.00;37.50;;;;;3.94;48.85;99817.75;6284117;20;2867969;-44
2022/03/07 10:35:49;;;;;;;;;53.33;41.33;;;;;4.00;49.89;99822.00;6285422;20;3619013;-47
2022/03/07 10:38:22;;;;;;;;;50.00;41.00;;;;;4.08;49.32;99819.94;6313533;20;3616371;-44
2022/03/07 10:40:55;;;;;;;;;54.00;40.50;;;;;3.91;49.96;99818.72;6322504;20;2873204;-44
2022/03/07 10:43:24;;;;;;;;;46.50;39.50;;;;;4.12;50.08;99818.94;6289794;20;2860654;-46
2022/03/07 10:46:03;;;;;;;;;60.50;44.00;;;;;3.69;50.92;99813.22;6287408;20;2879446;-44
2022/03/07 10:48:43;;;;;;;;;60.00;47.00;;;;;4.03;50.33;99801.53;6289430;20;2867973;-44
2022/03/07 10:51:20;;;;;;;;;64.00;49.00;;;;;4.58;49.61;99801.41;6289660;20;2871078;-46
2022/03/07 10:53:49;;;;;;;;;61.50;47.50;;;;;4.11;50.90;99794.16;6321689;20;2861703;-44
2022/03/07 10:56:21;;;;;;;;;58.00;45.50;;;;;3.95;49.72;99793.81;6284892;20;2493016;-45
2022/03/07 10:58:55;;;;;;;;;58.50;46.00;;;;;3.93;51.41;99794.78;6288249;20;2864811;-44
2022/03/07 11:01:33;;;;;;;;;61.00;46.00;;;;;4.11;50.39;99799.47;6289526;20;2865866;-47
2022/03/07 11:04:01;;;;;;;;;58.00;45.00;;;;;3.56;51.36;99790.63;6281834;20;2497118;-43
2022/03/07 11:06:31;;;;;;;;;61.00;47.67;;;;;4.08;50.42;99777.44;6288005;20;2873159;-44
2022/03/07 11:09:00;;;;;;;;;64.67;47.33;;;;;3.74;50.66;99790.06;6317078;20;2875347;-45
2022/03/07 11:11:30;;;;;;;;;67.00;51.33;;;;;3.94;50.42;99785.88;6321324;20;2883664;-44
2022/03/07 11:14:00;;;;;;;;;64.00;51.00;;;;;3.88;50.77;99776.31;6317683;20;2868990;-44
2022/03/07 11:16:32;;;;;;;;;71.50;52.00;;;;;4.33;50.49;99766.84;6288237;20;2860692;-45
2022/03/07 11:19:02;;;;;;;;;54.00;46.00;;;;;4.58;49.41;99770.41;6285671;20;2844043;-44